Time;durP1;ratioP1;P1;durP2;ratioP2;P2;SDS_P1;SDS_P2;PMS_P1;PMS_P2;Temp;Humidity;BMP_temperature;BMP_pressure;BME280_temperature;BME280_humidity;BME280_pressure;Samples;Min_cycle;Max_cycle;Signal;HPM_P1;HPM_P2
2021/06/14 00:02:18;;;;;;;1.38;0.85;;;;;;;16.39;92.78;99994.88;6285312;22;20008;-75
2021/06/14 00:05:05;;;;;;;1.30;0.98;;;;;;;15.96;94.47;100000.53;6285000;22;20092;-74
2021/06/14 00:07:40;;;;;;;1.17;0.80;;;;;;;16.17;95.89;99998.59;6285028;22;20010;-75
2021/06/14 00:10:15;;;;;;;1.38;0.70;;;;;;;16.14;92.85;99994.47;6285257;22;20027;-75
2021/06/14 00:12:50;;;;;;;4.00;0.80;;;;;;;15.84;92.66;100005.44;6283634;22;20014;-74
2021/06/14 00:15:19;;;;;;;1.20;0.70;;;;;;;16.02;92.57;100000.22;6283630;22;20015;-74
2021/06/14 00:17:47;;;;;;;4.85;1.20;;;;;;;16.58;94.67;99993.97;6283503;22;20228;-73
2021/06/14 00:20:23;;;;;;;0.88;0.80;;;;;;;16.39;94.66;99999.19;6283174;22;20033;-75
2021/06/14 00:22:52;;;;;;;1.40;0.75;;;;;;;16.17;93.18;100001.19;6284943;22;20362;-74
2021/06/14 00:25:44;;;;;;;1.83;0.93;;;;;;;17.25;94.27;99999.72;6286078;22;20015;-76
2021/06/14 00:28:23;;;;;;;1.30;0.95;;;;;;;16.33;95.43;99994.38;6285333;22;20023;-75
2021/06/14 00:30:57;;;;;;;1.88;0.93;;;;;;;16.56;93.71;100001.72;6285073;22;20030;-75
2021/06/14 00:33:38;;;;;;;1.38;0.80;;;;;;;16.31;94.00;100006.44;6284560;22;20397;-75
2021/06/14 00:36:31;;;;;;;1.05;0.77;;;;;;;15.93;95.71;100007.53;6285113;22;20007;-75
2021/06/14 00:39:03;;;;;;;2.47;0.82;;;;;;;16.01;94.70;99997.72;6284678;22;20008;-75
2021/06/14 00:41:39;;;;;;;1.83;1.08;;;;;;;16.34;96.01;99996.84;6283486;22;20259;-75
2021/06/14 00:44:38;;;;;;;1.13;1.00;;;;;;;16.31;95.23;99991.03;6285158;22;20023;-75
2021/06/14 00:47:28;;;;;;;3.95;0.90;;;;;;;16.11;96.30;99988.66;6284796;22;20015;-75
2021/06/14 00:50:06;;;;;;;1.92;0.90;;;;;;;16.25;96.79;99984.50;6285466;22;20546;-75
2021/06/14 00:52:33;;;;;;;2.17;0.98;;;;;;;16.37;94.36;99980.47;6283244;22;20026;-75
2021/06/14 00:54:59;;;;;;;3.13;1.00;;;;;;;16.49;93.46;99987.56;6282325;22;20026;-76
2021/06/14 00:57:25;;;;;;;1.55;0.98;;;;;;;16.07;95.75;99987.16;6283096;22;20007;-75
2021/06/14 00:59:53;;;;;;;2.30;0.80;;;;;;;15.83;95.92;99999.47;6285133;22;20007;-75
2021/06/14 01:02:37;;;;;;;2.58;0.80;;;;;;;15.78;96.40;99995.47;6284742;22;20011;-76
2021/06/14 01:05:13;;;;;;;2.03;0.98;;;;;;;16.52;94.63;99987.41;6285015;22;20025;-76
2021/06/14 01:07:42;;;;;;;3.30;1.00;;;;;;;16.06;95.96;99996.59;6284931;22;20059;-76
2021/06/14 01:10:13;;;;;;;2.33;1.13;;;;;;;16.12;96.37;99988.56;6283425;22;20019;-76
2021/06/14 01:13:32;;;;;;;3.38;1.08;;;;;;;15.49;95.78;99990.00;6284839;22;20011;-76
2021/06/14 01:16:05;;;;;;;3.17;1.20;;;;;;;15.91;96.26;99993.94;6283974;22;20027;-75
2021/06/14 01:19:01;;;;;;;5.32;1.02;;;;;;;15.88;95.77;99983.84;6284841;22;20385;-76
2021/06/14 01:21:47;;;;;;;2.45;1.20;;;;;;;16.15;95.35;100000.44;6283151;22;20401;-77
2021/06/14 01:24:52;;;;;;;2.15;1.20;;;;;;;15.88;94.71;99991.56;6285009;22;20044;-77
2021/06/14 01:28:02;;;;;;;1.40;1.10;;;;;;;15.97;94.63;99989.34;6285364;22;20015;-77
2021/06/14 01:30:55;;;;;;;5.18;1.52;;;;;;;15.93;95.10;99995.53;6285207;22;20068;-76
2021/06/14 01:33:37;;;;;;;1.83;1.20;;;;;;;15.79;95.87;99991.97;6284780;22;20014;-76
2021/06/14 01:36:39;;;;;;;3.67;1.13;;;;;;;15.72;95.49;99995.75;6283334;22;20007;-76
2021/06/14 01:39:25;;;;;;;2.40;1.20;;;;;;;16.08;93.75;99991.41;6284965;22;20322;-76
2021/06/14 01:42:03;;;;;;;5.35;1.42;;;;;;;16.03;93.72;99993.34;6284853;22;20011;-76
2021/06/14 01:45:18;;;;;;;2.10;1.20;;;;;;;16.01;93.99;99995.16;6286143;22;20011;-76
2021/06/14 01:47:46;;;;;;;3.97;1.40;;;;;;;16.00;93.27;99990.94;6286841;22;20044;-76
2021/06/14 01:50:31;;;;;;;2.90;1.10;;;;;;;16.26;92.74;99982.78;6284896;22;20457;-76
2021/06/14 01:53:14;;;;;;;2.75;0.90;;;;;;;16.11;91.27;99986.09;6284576;22;20019;-76
2021/06/14 01:55:40;;;;;;;2.70;0.90;;;;;;;16.00;90.75;99983.25;6297353;22;20277;-76
2021/06/14 01:58:08;;;;;;;2.72;0.93;;;;;;;16.23;90.72;99988.88;6317697;22;20022;-76
2021/06/14 02:00:36;;;;;;;2.88;1.08;;;;;;;16.65;89.87;99985.03;6317558;22;20027;-76
2021/06/14 02:03:17;;;;;;;3.35;1.00;;;;;;;15.91;91.74;99993.94;6317429;22;20003;-76
2021/06/14 02:12:28;;;;;;;1.55;0.95;;;;;;;16.21;90.63;99974.47;6317661;22;20014;-75
2021/06/14 02:14:58;;;;;;;0.77;0.70;;;;;;;16.01;91.44;99972.06;6318040;22;20065;-76
2021/06/14 02:17:30;;;;;;;1.17;0.90;;;;;;;15.99;91.16;99977.28;6289754;22;20007;-75
2021/06/14 02:20:12;;;;;;;3.47;1.20;;;;;;;16.15;90.33;99969.63;6289579;22;20007;-75
2021/06/14 02:22:40;;;;;;;1.42;1.10;;;;;;;16.05;90.07;99971.84;6317030;22;20142;-75
2021/06/14 02:28:45;;;;;;;2.97;1.60;;;;;;;15.58;93.38;99969.09;6318210;22;20266;-75
2021/06/14 02:31:19;;;;;;;1.15;1.02;;;;;;;15.55;93.14;99964.09;6289758;22;20374;-75
2021/06/14 02:33:47;;;;;;;1.60;0.90;;;;;;;15.73;91.98;99967.47;6289445;22;20010;-76
2021/06/14 02:36:50;;;;;;;2.35;1.00;;;;;;;15.64;92.33;99965.38;6317073;22;20027;-76
2021/06/14 02:39:21;;;;;;;2.95;1.35;;;;;;;15.60;91.30;99969.00;6289534;22;20042;-76
2021/06/14 02:45:09;;;;;;;4.80;1.20;;;;;;;16.24;89.48;99958.94;6318493;22;20113;-75
2021/06/14 02:47:36;;;;;;;2.05;1.20;;;;;;;16.20;90.55;99949.72;6289509;22;20007;-76
2021/06/14 02:50:21;;;;;;;2.33;1.20;;;;;;;15.75;91.04;99952.84;6289425;22;20014;-76
2021/06/14 02:52:52;;;;;;;1.80;1.30;;;;;;;15.96;91.30;99936.44;6317119;22;20435;-77
2021/06/14 02:55:26;;;;;;;1.77;1.38;;;;;;;16.38;90.95;99943.66;6313075;22;20124;-76
2021/06/14 02:58:25;;;;;;;2.42;1.20;;;;;;;15.89;92.63;99947.88;6289482;22;19999;-76
2021/06/14 03:00:54;;;;;;;3.30;1.38;;;;;;;15.42;94.38;99945.09;6317018;22;20011;-77
2021/06/14 03:03:56;;;;;;;5.78;1.50;;;;;;;15.91;92.83;99940.09;6317615;22;20382;-76
2021/06/14 03:06:46;;;;;;;3.42;1.50;;;;;;;15.93;92.69;99934.00;6290029;22;20047;-76
2021/06/14 03:09:15;;;;;;;4.25;1.88;;;;;;;16.04;91.15;99938.59;6289147;22;20061;-77
2021/06/14 03:11:42;;;;;;;4.15;1.50;;;;;;;16.05;90.57;99935.94;6289110;22;20042;-75
2021/06/14 03:14:15;;;;;;;3.63;1.42;;;;;;;16.37;91.89;99936.84;6289268;22;20023;-75
2021/06/14 03:16:46;;;;;;;2.22;1.27;;;;;;;16.13;90.48;99946.63;6316746;22;20073;-75
2021/06/14 03:19:30;;;;;;;2.10;1.50;;;;;;;16.20;91.65;99950.53;6289741;22;20264;-74
2021/06/14 03:22:09;;;;;;;3.13;1.52;;;;;;;15.99;88.93;99943.94;6289272;22;20099;-76
2021/06/14 03:25:03;;;;;;;4.55;1.60;;;;;;;16.68;91.16;99943.81;6316549;22;20010;-76
2021/06/14 03:27:29;;;;;;;3.92;1.65;;;;;;;15.70;90.79;99949.72;6289352;22;20120;-75
2021/06/14 03:30:06;;;;;;;3.30;1.70;;;;;;;16.19;91.21;99950.63;6317119;22;20374;-76
2021/06/14 03:32:40;;;;;;;2.85;1.73;;;;;;;16.34;90.15;99963.50;6289227;22;20062;-76
2021/06/14 03:35:24;;;;;;;3.50;1.50;;;;;;;16.27;90.18;99951.06;6316642;22;20007;-76
2021/06/14 03:38:06;;;;;;;3.22;1.38;;;;;;;15.73;91.33;99954.66;6317046;22;20011;-76
2021/06/14 03:41:21;;;;;;;1.63;1.35;;;;;;;15.99;90.87;99964.47;6317345;22;20007;-76
2021/06/14 03:44:04;;;;;;;1.40;1.30;;;;;;;16.24;89.92;99974.31;6317264;22;20007;-77
2021/06/14 03:46:48;;;;;;;2.30;1.50;;;;;;;16.50;91.78;99966.13;6316848;22;20011;-76
2021/06/14 03:52:21;;;;;;;3.80;1.52;;;;;;;17.12;91.91;99963.59;6317124;22;20095;-74
2021/06/14 03:55:04;;;;;;;2.22;1.40;;;;;;;16.29;90.24;99957.78;6316571;22;20143;-73
2021/06/14 03:57:34;;;;;;;3.45;1.60;;;;;;;16.26;91.84;99962.25;6254907;22;20012;-74
2021/06/14 04:00:00;;;;;;;4.95;1.35;;;;;;;16.39;92.39;99958.13;6254215;23;20012;-72
2021/06/14 04:02:26;;;;;;;2.92;1.63;;;;;;;16.34;92.15;99962.69;6253968;23;20027;-73
2021/06/14 04:05:10;;;;;;;2.25;1.50;;;;;;;16.29;92.40;99962.06;6254306;22;20008;-75
2021/06/14 04:07:38;;;;;;;2.75;1.80;;;;;;;15.98;92.91;99965.38;6248875;23;20334;-74
2021/06/14 04:10:06;;;;;;;6.35;2.10;;;;;;;16.11;93.85;99961.28;6252304;23;20016;-73
2021/06/14 04:12:36;;;;;;;3.63;2.05;;;;;;;16.34;93.56;99958.34;6252446;23;20056;-76
2021/06/14 04:15:30;;;;;;;2.95;1.80;;;;;;;16.33;92.75;99958.44;6255024;23;20104;-75
2021/06/14 04:17:56;;;;;;;6.28;2.17;;;;;;;16.33;94.05;99948.19;6253203;23;20247;-74
2021/06/14 04:20:22;;;;;;;5.07;1.90;;;;;;;16.46;92.93;99960.28;6277878;22;20011;-76
2021/06/14 04:22:51;;;;;;;7.55;2.22;;;;;;;16.37;92.52;99957.38;6252172;23;20006;-74
2021/06/14 04:25:19;;;;;;;10.32;2.35;;;;;;;16.47;94.11;99958.56;6278035;22;20377;-74
2021/06/14 04:27:45;;;;;;;5.18;2.13;;;;;;;16.78;93.04;99955.22;6277861;22;20093;-74
2021/06/14 04:30:18;;;;;;;3.33;2.30;;;;;;;16.86;93.84;99959.03;6251697;23;20012;-74
2021/06/14 04:32:51;;;;;;;3.20;1.90;;;;;;;16.52;93.05;99954.03;6252742;23;20016;-74
2021/06/14 04:35:21;;;;;;;4.97;1.88;;;;;;;16.14;93.39;99953.41;6251359;23;20046;-76
2021/06/14 04:37:49;;;;;;;4.82;2.20;;;;;;;16.76;92.69;99964.72;6251997;23;20224;-75
2021/06/14 04:43:02;;;;;;;3.97;2.20;;;;;;;16.77;93.06;99974.13;6253165;23;20288;-73
2021/06/14 04:45:29;;;;;;;6.20;2.05;;;;;;;17.06;94.37;99981.06;6255000;22;20011;-77
2021/06/14 04:48:35;;;;;;;6.90;3.90;;;;;;;16.76;93.26;99980.13;6253219;23;20008;-76
2021/06/14 04:51:01;;;;;;;2.80;2.00;;;;;;;16.40;92.46;99977.75;6254872;23;20371;-76
2021/06/14 04:53:40;;;;;;;3.38;1.88;;;;;;;16.46;91.89;99979.97;6278453;22;20086;-76
2021/06/14 04:56:06;;;;;;;4.72;1.90;;;;;;;16.72;91.47;99981.25;6277558;22;20100;-76
2021/06/14 04:58:40;;;;;;;3.13;1.95;;;;;;;17.08;90.89;99981.81;6316673;22;20003;-76
2021/06/14 05:01:18;;;;;;;6.18;2.15;;;;;;;17.25;87.68;99974.03;6316139;22;20010;-76
2021/06/14 05:03:57;;;;;;;4.05;1.70;;;;;;;17.59;85.37;99976.38;6315605;22;20014;-76
2021/06/14 05:06:30;;;;;;;2.85;1.75;;;;;;;17.64;84.49;99979.53;6315814;22;20061;-75
2021/06/14 05:09:00;;;;;;;4.93;2.28;;;;;;;18.07;84.34;99980.44;6288601;22;20004;-76
2021/06/14 05:11:33;;;;;;;3.53;2.30;;;;;;;17.88;86.75;99982.44;6315889;22;20018;-76
2021/06/14 05:14:05;;;;;;;5.47;2.20;;;;;;;17.65;86.50;99975.22;6316621;22;20011;-76
2021/06/14 05:16:32;;;;;;;4.72;1.98;;;;;;;17.85;85.57;99972.31;6289058;22;20265;-76
2021/06/14 05:19:16;;;;;;;4.35;2.00;;;;;;;18.42;84.11;99966.31;6289057;22;20007;-76
2021/06/14 05:21:49;;;;;;;4.07;2.30;;;;;;;18.19;83.60;99964.28;6318595;22;20321;-76
2021/06/14 05:24:17;;;;;;;5.28;1.98;;;;;;;18.45;82.80;99971.31;6318553;22;20038;-76
2021/06/14 05:27:28;;;;;;;5.55;1.92;;;;;;;18.63;81.88;99969.38;6318324;22;20080;-76
2021/06/14 05:30:04;;;;;;;4.85;1.80;;;;;;;18.86;78.17;99967.03;6290729;22;20003;-76
2021/06/14 05:32:33;;;;;;;3.15;1.40;;;;;;;18.95;76.28;99961.31;6290563;22;20235;-76
2021/06/14 05:35:08;;;;;;;4.75;2.03;;;;;;;19.25;76.49;99961.13;6317871;22;20022;-76
2021/06/14 05:37:40;;;;;;;4.32;2.13;;;;;;;19.40;74.79;99967.91;6317745;22;20043;-76
2021/06/14 05:40:24;;;;;;;6.57;1.95;;;;;;;19.30;72.71;99969.38;6289972;22;20011;-75
2021/06/14 05:43:10;;;;;;;4.47;1.80;;;;;;;19.69;71.92;99968.59;6317594;22;20007;-75
2021/06/14 05:48:57;;;;;;;4.50;2.03;;;;;;;19.73;70.30;99964.88;6317998;22;20014;-75
2021/06/14 05:52:03;;;;;;;3.05;1.90;;;;;;;19.84;69.76;99952.13;6318059;22;20011;-76
2021/06/14 05:54:33;;;;;;;3.65;2.00;;;;;;;19.81;67.33;99954.88;6317932;22;20007;-76
2021/06/14 05:57:17;;;;;;;6.03;1.90;;;;;;;19.82;67.44;99959.13;6290772;22;20015;-76
2021/06/14 06:00:21;;;;;;;3.88;2.05;;;;;;;19.76;66.74;99957.78;6318292;22;20263;-76
2021/06/14 06:03:00;;;;;;;4.78;1.83;;;;;;;19.74;67.66;99954.47;6318576;22;20027;-76
2021/06/14 06:05:28;;;;;;;7.38;2.20;;;;;;;20.02;67.25;99944.88;6317878;22;20062;-76
2021/06/14 06:07:59;;;;;;;5.75;2.10;;;;;;;19.80;63.57;99953.25;6318006;22;20022;-76
2021/06/14 06:10:25;;;;;;;4.20;1.70;;;;;;;20.09;64.37;99941.78;6318191;22;20018;-76
2021/06/14 06:12:58;;;;;;;3.08;1.85;;;;;;;20.26;63.57;99949.25;6290936;22;20007;-76
2021/06/14 06:15:29;;;;;;;2.75;1.77;;;;;;;20.00;61.12;99942.41;6317681;22;20018;-77
2021/06/14 06:18:18;;;;;;;;;;;;;;;20.26;62.71;99946.69;6318888;22;20034;-76
2021/06/14 06:21:16;;;;;;;2.53;1.35;;;;;;;20.03;61.64;99952.53;6318253;22;19921;-76
2021/06/14 06:23:41;;;;;;;5.65;2.03;;;;;;;20.28;62.12;99949.97;6317645;22;20066;-76
2021/06/14 06:26:07;;;;;;;4.75;2.20;;;;;;;20.59;61.48;99965.03;6291434;22;20061;-76
2021/06/14 06:28:33;;;;;;;2.78;1.80;;;;;;;20.25;61.14;99960.50;6291139;22;20011;-76
2021/06/14 06:30:58;;;;;;;2.63;1.83;;;;;;;19.94;59.49;99960.91;6290895;22;20362;-76
2021/06/14 06:33:24;;;;;;;3.47;1.60;;;;;;;20.48;59.30;99959.75;6290557;22;20096;-76
2021/06/14 06:35:49;;;;;;;4.25;1.90;;;;;;;20.61;59.64;99958.00;6317879;22;20018;-76
2021/06/14 06:38:16;;;;;;;3.45;2.03;;;;;;;20.62;58.27;99951.03;6317724;22;20266;-76
2021/06/14 06:40:41;;;;;;;2.42;1.63;;;;;;;20.46;58.65;99951.28;6317407;22;20007;-76
2021/06/14 06:43:06;;;;;;;2.38;1.58;;;;;;;20.55;58.54;99945.50;6290486;22;20073;-76
2021/06/14 06:45:32;;;;;;;4.85;2.10;;;;;;;20.91;64.82;99955.00;6318825;22;20072;-77
2021/06/14 06:47:58;;;;;;;4.07;1.83;;;;;;;21.23;65.50;99947.56;6317579;22;20107;-76
2021/06/14 06:50:23;;;;;;;5.03;1.90;;;;;;;21.18;63.38;99947.91;6290283;22;20003;-76
2021/06/14 06:52:49;;;;;;;6.50;2.10;;;;;;;21.55;61.75;99948.66;6290168;22;20013;-76
2021/06/14 06:55:16;;;;;;;4.53;1.75;;;;;;;21.65;60.77;99941.03;6290179;22;20010;-76
2021/06/14 06:57:42;;;;;;;4.45;1.58;;;;;;;21.71;61.97;99946.53;6290169;22;20035;-77
2021/06/14 07:00:12;;;;;;;3.70;1.65;;;;;;;21.72;60.66;99952.56;6317669;22;20007;-77
2021/06/14 07:02:38;;;;;;;2.63;1.55;;;;;;;22.10;61.50;99947.97;6290449;22;20257;-77
2021/06/14 07:05:04;;;;;;;3.50;1.50;;;;;;;22.29;59.30;99949.03;6290108;22;19999;-76
2021/06/14 07:07:29;;;;;;;3.22;1.45;;;;;;;20.43;61.34;99948.94;6290446;22;20034;-77
2021/06/14 07:09:57;;;;;;;3.63;1.52;;;;;;;21.58;60.91;99948.41;6316913;22;20464;-76
2021/06/14 07:12:22;;;;;;;3.65;1.50;;;;;;;22.23;58.10;99944.31;6289644;22;20383;-76
2021/06/14 07:14:48;;;;;;;2.58;1.70;;;;;;;22.10;57.20;99938.44;6290649;22;20007;-76
2021/06/14 07:17:13;;;;;;;3.38;1.45;;;;;;;21.72;63.26;99944.78;6317092;22;20022;-76
2021/06/14 07:19:39;;;;;;;4.55;2.00;;;;;;;21.93;59.30;99943.22;6289963;22;20395;-76
2021/06/14 07:22:04;;;;;;;3.42;1.52;;;;;;;22.11;59.58;99940.06;6290270;22;20041;-76
2021/06/14 07:24:30;;;;;;;2.78;1.85;;;;;;;21.52;59.64;99936.75;6316893;22;20007;-76
2021/06/14 07:26:55;;;;;;;4.70;1.40;;;;;;;21.84;59.98;99943.91;6290351;22;20015;-76
2021/06/14 07:29:21;;;;;;;3.42;1.77;;;;;;;23.04;57.25;99937.03;6289986;22;19999;-77
2021/06/14 07:31:46;;;;;;;3.67;1.90;;;;;;;22.86;59.38;99945.44;6290153;22;20027;-76
2021/06/14 07:34:45;;;;;;;2.92;1.80;;;;;;;23.16;58.42;99949.03;6317223;22;20039;-77
2021/06/14 07:37:11;;;;;;;6.07;1.70;;;;;;;22.07;57.97;99932.63;6290069;22;20385;-76
2021/06/14 07:39:37;;;;;;;4.68;1.70;;;;;;;22.73;56.11;99937.84;6317367;22;20047;-77
2021/06/14 07:42:04;;;;;;;2.08;1.70;;;;;;;22.02;57.18;99922.66;6318273;22;20011;-76
2021/06/14 07:44:30;;;;;;;3.47;1.80;;;;;;;21.64;57.58;99929.00;6317406;22;20027;-76
2021/06/14 07:46:56;;;;;;;3.90;1.83;;;;;;;21.47;57.50;99938.03;6316512;22;20022;-75
2021/06/14 07:49:22;;;;;;;1.95;1.48;;;;;;;21.64;54.01;99924.66;6289524;22;20011;-75
2021/06/14 07:51:49;;;;;;;2.63;1.70;;;;;;;21.55;59.25;99918.41;6316537;22;20011;-76
2021/06/14 07:54:15;;;;;;;7.63;2.08;;;;;;;21.21;60.23;99932.19;6316449;22;20003;-76
2021/06/14 07:56:45;;;;;;;4.43;1.60;;;;;;;21.16;58.13;99931.66;6317292;22;20116;-76
2021/06/14 07:59:11;;;;;;;5.65;2.05;;;;;;;21.09;60.36;99930.47;6288685;22;20481;-76
2021/06/14 08:01:36;;;;;;;4.28;1.92;;;;;;;21.33;58.86;99939.00;6316719;22;20023;-76
2021/06/14 08:04:02;;;;;;;6.55;2.00;;;;;;;21.62;58.40;99930.88;6316703;22;20019;-75
2021/06/14 08:06:27;;;;;;;3.47;1.88;;;;;;;21.27;58.66;99941.25;6289127;22;20023;-76
2021/06/14 08:08:53;;;;;;;5.10;1.85;;;;;;;22.06;59.09;99933.59;6289189;22;20444;-76
2021/06/14 08:11:19;;;;;;;6.35;1.98;;;;;;;22.72;54.69;99936.19;6288453;22;20092;-76
2021/06/14 08:13:46;;;;;;;5.35;1.80;;;;;;;22.35;56.53;99933.00;6316379;22;20011;-76
2021/06/14 08:16:12;;;;;;;3.10;1.63;;;;;;;22.44;55.30;99937.47;6316125;22;20026;-76
2021/06/14 08:26:29;;;;;;;2.97;1.70;;;;;;;21.85;53.56;99932.63;6316907;22;20001;-76
2021/06/14 08:28:57;;;;;;;2.85;1.88;;;;;;;21.95;53.07;99926.63;6289535;22;20015;-76
2021/06/14 08:31:24;;;;;;;3.22;1.92;;;;;;;22.23;52.79;99928.78;6289313;22;20035;-76
2021/06/14 08:33:50;;;;;;;6.18;2.67;;;;;;;23.45;53.30;99923.38;6316409;22;20011;-76
2021/06/14 08:36:15;;;;;;;3.75;1.70;;;;;;;22.97;54.72;99928.13;6289302;22;20031;-77
2021/06/14 08:38:41;;;;;;;5.13;1.95;;;;;;;22.13;54.26;99917.47;6315976;22;20361;-76
2021/06/14 08:41:07;;;;;;;5.20;1.92;;;;;;;22.18;55.47;99920.53;6316009;22;20023;-76
2021/06/14 08:43:33;;;;;;;3.50;1.75;;;;;;;22.25;55.43;99913.09;6316514;22;20015;-76
2021/06/14 08:45:58;;;;;;;3.15;1.80;;;;;;;22.85;54.92;99913.53;6316625;22;20014;-76
2021/06/14 08:48:25;;;;;;;4.82;2.42;;;;;;;22.28;56.15;99913.69;6316960;22;20027;-76
2021/06/14 08:50:51;;;;;;;4.40;2.50;;;;;;;22.70;57.31;99906.94;6316206;22;20415;-76
2021/06/14 08:53:16;;;;;;;4.13;2.38;;;;;;;23.55;47.98;99910.44;6315743;22;20018;-76
2021/06/14 08:55:44;;;;;;;5.78;2.25;;;;;;;23.44;45.46;99907.91;6316038;22;20035;-76
2021/06/14 08:58:10;;;;;;;4.60;2.40;;;;;;;23.94;45.50;99902.75;6289214;22;20007;-76
2021/06/14 09:00:36;;;;;;;4.00;2.20;;;;;;;23.38;45.63;99906.63;6316070;22;20053;-76
2021/06/14 09:03:03;;;;;;;4.47;1.98;;;;;;;24.00;43.73;99897.03;6316281;22;20011;-77
2021/06/14 09:05:29;;;;;;;2.75;2.15;;;;;;;23.56;44.87;99899.94;6289379;22;20011;-76
2021/06/14 09:07:55;;;;;;;3.25;2.03;;;;;;;24.66;44.75;99898.22;6315819;22;20013;-76
2021/06/14 09:10:30;;;;;;;4.38;1.83;;;;;;;23.06;45.44;99898.00;6288724;22;20017;-76
2021/06/14 09:13:09;;;;;;;3.92;1.80;;;;;;;23.75;43.83;99888.84;6316129;22;20000;-76
2021/06/14 09:15:35;;;;;;;6.13;1.90;;;;;;;24.44;43.02;99890.66;6317433;22;20011;-76
2021/06/14 09:18:01;;;;;;;3.17;2.00;;;;;;;23.15;45.05;99889.50;6315629;22;20021;-76
2021/06/14 09:20:28;;;;;;;2.80;1.80;;;;;;;23.88;44.91;99882.50;6315876;22;20007;-76
2021/06/14 09:22:54;;;;;;;3.10;1.50;;;;;;;24.75;42.69;99881.03;6315838;22;20022;-75
2021/06/14 09:25:20;;;;;;;3.70;1.65;;;;;;;24.51;40.36;99891.78;6315796;22;20470;-76
2021/06/14 09:27:49;;;;;;;2.78;1.65;;;;;;;24.30;39.82;99883.25;6316039;22;20030;-77
2021/06/14 09:30:24;;;;;;;2.10;1.65;;;;;;;25.61;39.98;99889.66;6288539;22;20018;-76
2021/06/14 09:33:01;;;;;;;3.22;1.80;;;;;;;25.19;40.28;99885.72;6316284;22;20007;-76
2021/06/14 09:35:38;;;;;;;3.78;1.83;;;;;;;25.15;39.06;99886.94;6316352;22;20019;-78
2021/06/14 09:38:09;;;;;;;6.50;1.90;;;;;;;24.83;39.92;99888.97;6288713;22;20015;-75
2021/06/14 09:43:57;;;;;;;3.58;2.00;;;;;;;23.92;42.02;99888.25;6316482;22;20104;-76
2021/06/14 09:46:42;;;;;;;4.70;1.90;;;;;;;24.71;41.86;99897.84;6315723;22;20015;-76
2021/06/14 09:49:18;;;;;;;5.40;1.83;;;;;;;24.97;40.16;99888.59;6288313;22;20010;-77
2021/06/14 09:52:10;;;;;;;4.15;1.50;;;;;;;24.96;40.60;99886.13;6315874;22;20011;-77
2021/06/14 09:54:45;;;;;;;2.78;1.55;;;;;;;25.95;38.57;99884.75;6288492;22;20018;-76
2021/06/14 09:57:42;;;;;;;6.95;1.63;;;;;;;25.29;38.63;99878.72;6316227;22;20069;-76
2021/06/14 10:00:35;;;;;;;3.50;1.50;;;;;;;23.96;40.85;99880.06;6316132;22;20104;-77
2021/06/14 10:03:11;;;;;;;4.40;1.85;;;;;;;23.55;41.19;99880.09;6288387;22;20463;-76
2021/06/14 10:05:48;;;;;;;4.90;1.50;;;;;;;24.34;38.29;99876.00;6290075;22;20094;-76
2021/06/14 10:08:32;;;;;;;2.20;1.60;;;;;;;23.97;39.60;99878.28;6317638;22;20023;-76
2021/06/14 10:11:36;;;;;;;5.78;1.60;;;;;;;23.31;40.88;99876.09;6317943;22;20011;-76
2021/06/14 10:14:15;;;;;;;6.60;1.90;;;;;;;24.01;41.27;99875.28;6291255;22;20014;-76
2021/06/14 10:16:44;;;;;;;6.43;1.98;;;;;;;23.81;42.52;99875.34;6318121;22;20011;-77
2021/06/14 10:22:32;;;;;;;3.97;1.92;;;;;;;26.01;38.72;99870.34;6318421;22;20030;-77
2021/06/14 10:25:18;;;;;;;4.57;1.58;;;;;;;25.43;41.04;99875.69;6318275;22;20035;-77
2021/06/14 10:28:09;;;;;;;2.42;1.50;;;;;;;24.97;40.96;99870.38;6318559;22;20011;-77
2021/06/14 10:31:25;;;;;;;9.20;1.77;;;;;;;23.24;44.15;99874.00;6318060;22;20358;-77
2021/06/14 10:34:06;;;;;;;3.42;1.40;;;;;;;22.74;44.73;99874.66;6318094;22;20103;-76
2021/06/14 10:37:13;;;;;;;3.33;1.50;;;;;;;23.24;43.78;99867.97;6317803;22;20008;-76
2021/06/14 10:39:51;;;;;;;3.08;1.85;;;;;;;24.92;41.84;99865.56;6317751;22;20003;-76
2021/06/14 10:42:46;;;;;;;3.40;1.52;;;;;;;24.80;41.04;99860.63;6290391;22;20030;-76
2021/06/14 10:45:19;;;;;;;3.60;1.70;;;;;;;25.01;39.70;99856.13;6291108;22;20248;-77
2021/06/14 10:48:04;;;;;;;3.05;1.40;;;;;;;25.22;38.67;99851.59;6290353;22;20023;-76
2021/06/14 10:50:49;;;;;;;2.45;1.55;;;;;;;25.00;39.08;99840.66;6318206;22;20007;-76
2021/06/14 10:53:32;;;;;;;2.38;1.73;;;;;;;25.17;40.19;99840.78;6290959;22;20003;-77
2021/06/14 10:56:01;;;;;;;3.28;1.60;;;;;;;24.90;39.67;99832.84;6316472;22;20031;-76
2021/06/14 10:58:34;;;;;;;3.35;1.88;;;;;;;25.18;40.68;99826.78;6290246;22;20011;-76
2021/06/14 11:01:27;;;;;;;4.57;1.80;;;;;;;23.81;43.38;99829.41;6290091;22;20121;-76
2021/06/14 11:07:16;;;;;;;4.10;1.77;;;;;;;25.02;42.93;99836.16;6317706;22;20088;-76
2021/06/14 11:09:44;;;;;;;3.78;1.48;;;;;;;24.24;42.60;99830.97;6317188;22;20007;-76
2021/06/14 11:12:33;;;;;;;2.17;1.70;;;;;;;24.58;41.89;99834.84;6290238;22;20007;-76
2021/06/14 11:15:09;;;;;;;2.92;1.30;;;;;;;24.99;41.50;99826.00;6318546;22;20027;-75
2021/06/14 11:17:55;;;;;;;2.20;1.60;;;;;;;24.83;40.68;99824.78;6316780;22;20014;-76
2021/06/14 11:20:33;;;;;;;3.55;1.92;;;;;;;25.27;40.32;99807.75;6290672;22;20214;-76
2021/06/14 11:23:32;;;;;;;4.72;1.65;;;;;;;25.54;40.91;99810.44;6317456;22;20007;-76
2021/06/14 11:25:58;;;;;;;3.65;1.55;;;;;;;26.00;42.43;99814.78;6317533;22;20014;-76
2021/06/14 11:28:47;;;;;;;3.45;1.70;;;;;;;25.19;40.31;99812.00;6290224;22;20014;-77
2021/06/14 11:37:59;;;;;;;;;;;;;;;24.48;42.00;99813.22;6318244;22;20013;-77
2021/06/14 11:40:55;;;;;;;2.00;1.63;;;;;;;25.38;40.51;99804.97;6317624;22;20018;-77
2021/06/14 11:43:40;;;;;;;3.70;1.77;;;;;;;25.70;40.57;99797.66;6316954;22;20011;-77
2021/06/14 11:46:40;;;;;;;5.65;1.90;;;;;;;25.57;41.07;99804.13;6290288;22;20030;-77
2021/06/14 11:49:43;;;;;;;3.58;1.55;;;;;;;25.59;40.90;99803.00;6317353;22;20027;-76
2021/06/14 11:52:37;;;;;;;3.72;1.40;;;;;;;25.03;40.55;99807.38;6317213;22;20003;-77
2021/06/14 11:55:13;;;;;;;2.85;1.50;;;;;;;24.72;40.39;99805.84;6290055;22;20035;-76
2021/06/14 11:58:00;;;;;;;2.67;1.65;;;;;;;25.08;38.97;99791.34;6289391;22;20055;-76
2021/06/14 12:00:58;;;;;;;2.95;1.83;;;;;;;25.24;38.68;99789.78;6317090;22;20007;-76
2021/06/14 12:03:33;;;;;;;3.95;1.65;;;;;;;25.08;38.12;99794.75;6316839;22;20100;-76
2021/06/14 12:06:40;;;;;;;5.45;1.67;;;;;;;25.66;36.64;99791.06;6317337;22;20011;-76
2021/06/14 12:09:45;;;;;;;3.05;1.60;;;;;;;24.39;38.74;99777.63;6317228;22;20370;-76
2021/06/14 12:12:15;;;;;;;3.42;1.40;;;;;;;25.13;40.20;99773.53;6289274;22;20042;-78
2021/06/14 12:15:03;;;;;;;3.95;1.50;;;;;;;24.92;41.08;99777.09;6289888;22;20022;-76
2021/06/14 12:17:57;;;;;;;6.25;1.30;;;;;;;24.99;41.20;99769.56;6316786;22;20341;-77
2021/06/14 12:20:32;;;;;;;6.20;1.50;;;;;;;25.08;40.56;99771.31;6316780;22;20011;-76
2021/06/14 12:23:25;;;;;;;4.00;1.30;;;;;;;25.02;41.74;99771.09;6316707;22;20357;-76
2021/06/14 12:26:04;;;;;;;5.88;1.85;;;;;;;24.48;42.06;99766.44;6317463;22;20022;-76
2021/06/14 12:28:50;;;;;;;3.75;1.73;;;;;;;25.39;42.26;99766.75;6289899;22;20026;-76
2021/06/14 12:31:42;;;;;;;5.57;1.75;;;;;;;25.31;42.31;99757.06;6290130;22;20007;-76
2021/06/14 12:34:42;;;;;;;2.42;1.60;;;;;;;24.61;43.73;99764.38;6316453;22;20025;-76
2021/06/14 12:37:22;;;;;;;3.20;1.60;;;;;;;24.66;44.10;99760.38;6161385;23;20017;-76
2021/06/14 12:40:01;;;;;;;3.97;1.60;;;;;;;24.99;42.50;99758.34;6136745;23;20009;-76
2021/06/14 12:42:38;;;;;;;2.80;1.40;;;;;;;24.84;41.63;99760.53;6161806;23;20389;-76
2021/06/14 12:45:38;;;;;;;3.28;1.60;;;;;;;25.09;40.67;99751.34;6162082;23;20387;-77
2021/06/14 12:48:32;;;;;;;4.32;1.50;;;;;;;24.90;40.77;99757.38;6313977;22;20017;-76
2021/06/14 12:54:19;;;;;;;4.32;1.70;;;;;;;25.48;40.90;99740.69;6316382;22;20053;-77
2021/06/14 12:57:36;;;;;;;2.08;1.30;;;;;;;24.50;40.24;99746.31;6289288;22;20027;-77
2021/06/14 13:00:09;;;;;;;3.33;1.50;;;;;;;26.21;39.56;99745.00;6289273;22;20039;-77
2021/06/14 13:05:56;;;;;;;2.58;1.40;;;;;;;25.04;40.10;99737.94;6316858;22;20033;-76
2021/06/14 13:09:19;;;;;;;3.20;1.45;;;;;;;24.93;40.44;99736.31;6288897;22;20358;-77
2021/06/14 13:12:02;;;;;;;2.72;1.52;;;;;;;24.28;42.41;99739.59;6165830;23;20009;-76
2021/06/14 13:17:51;;;;;;;5.55;1.40;;;;;;;23.64;45.67;99733.13;6190774;23;20019;-77